createdAt,value
2019-02-27T00:02:04.716Z,17.20
2019-02-27T00:04:34.873Z,16.30
2019-02-27T00:06:59.161Z,16.10
2019-02-27T00:09:25.517Z,15.23
2019-02-27T00:11:51.825Z,16.87
2019-02-27T00:14:18.281Z,16.65
2019-02-27T00:16:45.310Z,16.97
2019-02-27T00:19:11.615Z,16.12
2019-02-27T00:21:37.875Z,16.15
2019-02-27T00:24:04.262Z,15.08
2019-02-27T00:26:30.548Z,17.10
2019-02-27T00:28:56.832Z,16.20
2019-02-27T00:31:23.124Z,15.75
2019-02-27T00:33:49.393Z,15.13
2019-02-27T00:36:15.652Z,16.40
2019-02-27T00:38:41.955Z,15.30
2019-02-27T00:41:12.026Z,17.35
2019-02-27T00:43:36.464Z,16.52
2019-02-27T00:46:02.952Z,17.40
2019-02-27T00:48:29.212Z,16.77
2019-02-27T00:50:55.462Z,16.37
2019-02-27T00:53:22.009Z,16.02
2019-02-27T00:55:49.903Z,14.87
2019-02-27T00:58:16.176Z,15.72
2019-02-27T01:00:42.537Z,16.20
2019-02-27T01:03:08.885Z,15.40
2019-02-27T01:05:35.468Z,15.63
2019-02-27T01:08:01.965Z,16.10
2019-02-27T01:10:28.432Z,15.70
2019-02-27T01:12:57.666Z,16.15
2019-02-27T01:15:23.164Z,14.73
2019-02-27T01:17:49.508Z,16.00
2019-02-27T01:20:15.892Z,17.37
2019-02-27T01:22:42.202Z,15.00
2019-02-27T01:25:08.655Z,15.60
2019-02-27T01:27:37.917Z,16.85
2019-02-27T01:30:12.707Z,17.23
2019-02-27T01:32:38.973Z,15.32
2019-02-27T01:35:07.727Z,15.93
2019-02-27T01:37:34.010Z,15.03
2019-02-27T01:40:00.301Z,15.98
2019-02-27T01:42:32.028Z,14.60
2019-02-27T01:44:54.633Z,14.83
2019-02-27T01:47:21.316Z,15.15
2019-02-27T01:49:49.118Z,15.58
2019-02-27T01:52:15.773Z,14.60
2019-02-27T01:54:42.030Z,13.68
2019-02-27T01:57:08.376Z,14.10
2019-02-27T01:59:34.654Z,15.32
2019-02-27T02:02:01.046Z,14.93
2019-02-27T02:04:29.010Z,13.78
2019-02-27T02:06:55.288Z,14.30
2019-02-27T02:09:30.514Z,14.30
2019-02-27T02:11:57.233Z,14.03
2019-02-27T02:14:45.126Z,14.60
2019-02-27T02:17:34.998Z,14.30
2019-02-27T02:20:27.056Z,15.03
2019-02-27T02:23:13.981Z,14.73
2019-02-27T02:26:01.336Z,15.65
2019-02-27T02:28:49.923Z,13.15
2019-02-27T02:31:22.750Z,14.38
2019-02-27T02:34:19.881Z,14.95
2019-02-27T02:37:05.052Z,14.75
2019-02-27T02:39:54.714Z,14.23
2019-02-27T02:42:31.464Z,16.65
2019-02-27T02:45:13.775Z,33.65
2019-02-27T02:48:11.133Z,16.65
2019-02-27T02:50:46.969Z,13.95
2019-02-27T02:53:25.247Z,13.60
2019-02-27T02:55:54.951Z,13.88
2019-02-27T02:58:25.029Z,12.82
2019-02-27T03:01:03.683Z,13.40
2019-02-27T03:03:53.542Z,12.70
2019-02-27T03:06:40.620Z,13.03
2019-02-27T03:09:35.032Z,13.32
2019-02-27T03:12:29.937Z,11.88
2019-02-27T03:15:03.916Z,12.47
2019-02-27T03:17:55.389Z,13.10
2019-02-27T03:20:43.801Z,12.20
2019-02-27T03:23:19.938Z,11.38
2019-02-27T03:25:55.857Z,13.50
2019-02-27T03:28:28.964Z,12.47
2019-02-27T03:31:16.848Z,12.25
2019-02-27T03:33:51.723Z,12.37
2019-02-27T03:36:27.787Z,12.03
2019-02-27T03:39:17.441Z,12.07
2019-02-27T03:42:04.114Z,11.65
2019-02-27T03:44:37.319Z,11.85
2019-02-27T03:47:15.430Z,12.23
2019-02-27T03:49:51.209Z,11.33
2019-02-27T03:52:39.209Z,11.75
2019-02-27T03:55:38.646Z,12.15
2019-02-27T03:58:20.765Z,11.48
2019-02-27T04:00:53.798Z,12.88
2019-02-27T04:03:31.933Z,12.25
2019-02-27T04:06:23.324Z,12.68
2019-02-27T04:08:56.613Z,12.03
2019-02-27T04:11:23.487Z,11.80
2019-02-27T04:13:49.994Z,12.28
2019-02-27T04:16:16.360Z,11.53
2019-02-27T04:18:42.652Z,11.78
2019-02-27T04:21:08.914Z,11.97
2019-02-27T04:23:35.191Z,12.15
2019-02-27T04:26:05.394Z,14.07
2019-02-27T04:28:30.630Z,13.53
2019-02-27T04:30:56.957Z,12.47
2019-02-27T04:33:24.189Z,15.10
2019-02-27T04:35:50.704Z,17.75
2019-02-27T04:38:17.072Z,14.78
2019-02-27T04:40:44.130Z,11.63
2019-02-27T04:43:11.045Z,11.60
2019-02-27T04:45:37.421Z,11.38
2019-02-27T04:48:03.672Z,11.65
2019-02-27T04:50:30.043Z,12.45
2019-02-27T04:52:58.084Z,11.83
2019-02-27T04:55:24.612Z,12.00
2019-02-27T04:57:50.894Z,10.23
2019-02-27T05:00:17.169Z,10.30
2019-02-27T05:02:43.415Z,11.00
2019-02-27T05:05:09.901Z,10.32
2019-02-27T05:07:36.153Z,11.03
2019-02-27T05:10:06.967Z,9.60
2019-02-27T05:12:33.013Z,9.63
2019-02-27T05:15:00.854Z,9.50
2019-02-27T05:17:27.462Z,9.23
2019-02-27T05:19:53.722Z,9.75
2019-02-27T05:22:20.035Z,8.98
2019-02-27T05:24:46.277Z,9.35
2019-02-27T05:27:12.564Z,13.10
2019-02-27T05:29:38.824Z,9.90
2019-02-27T05:32:05.203Z,10.05
2019-02-27T05:34:31.466Z,9.48
2019-02-27T05:36:57.743Z,9.30
2019-02-27T05:39:24.048Z,8.53
2019-02-27T05:41:50.340Z,8.93
2019-02-27T05:44:21.351Z,8.75
2019-02-27T05:46:45.536Z,8.55
2019-02-27T05:49:11.908Z,9.25
2019-02-27T05:51:38.161Z,8.85
2019-02-27T05:54:04.525Z,9.60
2019-02-27T05:56:30.855Z,9.65
2019-02-27T05:58:57.232Z,9.30
2019-02-27T06:01:23.516Z,8.60
2019-02-27T06:03:52.239Z,9.40
2019-02-27T06:06:18.058Z,9.25
2019-02-27T06:08:44.418Z,8.48
2019-02-27T06:11:10.712Z,8.30
2019-02-27T06:13:37.021Z,9.00
2019-02-27T06:16:06.607Z,9.50
2019-02-27T06:18:31.350Z,9.83
2019-02-27T06:20:57.613Z,11.33
2019-02-27T06:23:23.884Z,11.03
2019-02-27T06:25:50.368Z,12.85
2019-02-27T06:28:18.816Z,11.80
2019-02-27T06:30:44.832Z,11.35
2019-02-27T06:33:11.916Z,10.65
2019-02-27T06:35:38.657Z,10.70
2019-02-27T06:38:04.965Z,11.10
2019-02-27T06:40:31.195Z,10.95
2019-02-27T06:42:57.471Z,11.15
2019-02-27T06:45:23.752Z,11.40
2019-02-27T06:47:50.395Z,11.22
2019-02-27T06:50:16.801Z,11.50
2019-02-27T06:52:43.272Z,11.50
2019-02-27T06:55:14.369Z,12.37
2019-02-27T06:57:41.321Z,15.32
2019-02-27T07:00:16.529Z,15.23
2019-02-27T07:02:42.979Z,14.55
2019-02-27T07:05:13.302Z,15.35
2019-02-27T07:07:38.324Z,13.55
2019-02-27T07:10:07.884Z,14.83
2019-02-27T07:12:34.165Z,14.63
2019-02-27T07:15:00.552Z,15.88
2019-02-27T07:17:29.152Z,15.35
2019-02-27T07:19:54.903Z,15.30
2019-02-27T07:22:21.289Z,14.07
2019-02-27T07:24:47.536Z,17.80
2019-02-27T07:27:13.963Z,14.60
2019-02-27T07:29:40.212Z,15.03
2019-02-27T07:32:06.651Z,14.47
2019-02-27T07:34:33.143Z,14.35
2019-02-27T07:36:59.409Z,15.08
2019-02-27T07:39:25.887Z,18.87
2019-02-27T07:41:52.171Z,19.07
2019-02-27T07:44:18.432Z,17.48
2019-02-27T07:46:44.716Z,16.87
2019-02-27T07:49:10.965Z,17.75
2019-02-27T07:51:37.228Z,18.05
2019-02-27T07:54:04.012Z,18.40
2019-02-27T07:56:30.393Z,18.87
2019-02-27T07:58:56.640Z,19.40
2019-02-27T08:01:23.519Z,20.00
2019-02-27T08:03:50.501Z,20.77
2019-02-27T08:06:16.772Z,23.50
2019-02-27T08:08:43.059Z,21.68
2019-02-27T08:11:13.409Z,19.02
2019-02-27T08:13:37.424Z,19.60
2019-02-27T08:16:03.704Z,18.45
2019-02-27T08:18:30.774Z,18.20
2019-02-27T08:20:58.037Z,18.42
2019-02-27T08:23:24.403Z,17.12
2019-02-27T08:25:50.689Z,15.80
2019-02-27T08:28:16.974Z,15.65
2019-02-27T08:30:43.254Z,16.60
2019-02-27T08:33:09.521Z,17.05
2019-02-27T08:35:35.883Z,16.48
2019-02-27T08:38:02.971Z,15.85
2019-02-27T08:40:29.343Z,15.25
2019-02-27T08:42:55.687Z,15.95
2019-02-27T08:45:26.859Z,15.95
2019-02-27T08:47:50.045Z,15.18
2019-02-27T08:50:20.479Z,18.40
2019-02-27T08:52:50.521Z,15.68
2019-02-27T08:55:21.807Z,19.85
2019-02-27T08:57:45.525Z,18.07
2019-02-27T09:00:23.491Z,16.90
2019-02-27T09:02:50.207Z,15.75
2019-02-27T09:05:19.783Z,16.82
2019-02-27T09:07:44.847Z,15.93
2019-02-27T09:10:16.669Z,18.02
2019-02-27T09:12:45.410Z,16.20
2019-02-27T09:15:12.842Z,16.27
2019-02-27T09:17:39.293Z,16.70
2019-02-27T09:20:08.573Z,17.40
2019-02-27T09:22:36.742Z,17.75
2019-02-27T09:25:04.694Z,17.05
2019-02-27T09:27:32.952Z,16.82
2019-02-27T09:29:59.122Z,18.35
2019-02-27T09:32:25.367Z,16.57
2019-02-27T09:34:51.675Z,17.07
2019-02-27T09:37:17.917Z,17.00
2019-02-27T09:39:44.181Z,16.37
2019-02-27T09:42:10.563Z,16.67
2019-02-27T09:44:37.281Z,16.85
2019-02-27T09:47:03.697Z,17.80
2019-02-27T09:49:29.952Z,15.72
2019-02-27T09:51:56.927Z,16.20
2019-02-27T09:54:23.309Z,17.27
2019-02-27T09:56:49.560Z,17.37
2019-02-27T09:59:16.743Z,17.55
2019-02-27T10:01:44.001Z,16.05
2019-02-27T10:04:10.268Z,14.75
2019-02-27T10:06:36.639Z,13.95
2019-02-27T10:09:05.019Z,15.78
2019-02-27T10:11:31.286Z,15.88
2019-02-27T10:13:57.696Z,15.10
2019-02-27T10:16:24.049Z,15.23
2019-02-27T10:18:54.820Z,14.33
2019-02-27T10:21:18.575Z,14.50
2019-02-27T10:23:44.864Z,13.50
2019-02-27T10:26:11.275Z,13.10
2019-02-27T10:28:39.711Z,14.47
2019-02-27T10:31:05.660Z,12.80
2019-02-27T10:33:31.909Z,12.37
2019-02-27T10:36:03.351Z,12.53
2019-02-27T10:38:26.857Z,12.85
2019-02-27T10:40:53.199Z,12.95
2019-02-27T10:43:21.045Z,13.03
2019-02-27T10:45:49.279Z,12.60
2019-02-27T10:48:15.595Z,13.38
2019-02-27T10:50:41.985Z,11.35
2019-02-27T10:53:08.343Z,11.40
2019-02-27T10:55:34.624Z,12.80
2019-02-27T10:58:00.881Z,11.10
2019-02-27T11:00:32.162Z,11.30
2019-02-27T11:02:59.444Z,12.33
2019-02-27T11:05:27.802Z,10.65
2019-02-27T11:07:54.079Z,12.78
2019-02-27T11:10:21.791Z,11.00
2019-02-27T11:12:48.139Z,11.05
2019-02-27T11:15:16.421Z,11.83
2019-02-27T11:17:42.828Z,11.80
2019-02-27T11:20:10.501Z,12.75
2019-02-27T11:22:36.988Z,11.85
2019-02-27T11:25:06.656Z,11.80
2019-02-27T11:27:32.947Z,12.45
2019-02-27T11:30:01.369Z,10.80
2019-02-27T11:32:27.281Z,10.20
2019-02-27T11:34:53.591Z,9.35
2019-02-27T11:37:20.008Z,10.13
2019-02-27T11:39:46.291Z,10.13
2019-02-27T11:42:12.656Z,9.97
2019-02-27T11:44:38.977Z,10.70
2019-02-27T11:47:05.292Z,11.07
2019-02-27T11:49:31.578Z,10.27
2019-02-27T11:51:57.845Z,9.13
2019-02-27T11:54:24.127Z,8.77
2019-02-27T11:56:51.497Z,8.50
2019-02-27T11:59:18.562Z,8.20
2019-02-27T12:01:44.816Z,9.30
2019-02-27T12:04:11.208Z,9.03
2019-02-27T12:06:41.352Z,9.37
2019-02-27T12:09:06.076Z,9.53
2019-02-27T12:11:32.459Z,8.77
2019-02-27T12:13:58.868Z,9.03
2019-02-27T12:16:25.272Z,9.53
2019-02-27T12:18:51.646Z,10.00
2019-02-27T12:21:18.048Z,10.40
2019-02-27T12:23:44.881Z,10.13
2019-02-27T12:26:11.270Z,10.50
2019-02-27T12:28:37.545Z,11.40
2019-02-27T12:31:04.040Z,10.70
2019-02-27T12:33:30.360Z,10.77
2019-02-27T12:35:56.612Z,12.97
2019-02-27T12:38:22.860Z,11.50
2019-02-27T12:40:49.149Z,12.47
2019-02-27T12:43:18.367Z,10.60
2019-02-27T12:45:43.489Z,10.93
2019-02-27T12:48:12.581Z,10.60
2019-02-27T12:50:37.959Z,11.00
2019-02-27T12:53:04.323Z,11.13
2019-02-27T12:55:35.479Z,10.33
2019-02-27T12:57:59.047Z,11.00
2019-02-27T13:00:28.237Z,11.50
2019-02-27T13:02:54.865Z,11.20
2019-02-27T13:05:21.296Z,11.37
2019-02-27T13:07:47.687Z,10.97
2019-02-27T13:10:19.863Z,11.50
2019-02-27T13:12:46.163Z,10.30
2019-02-27T13:15:26.619Z,11.27
2019-02-27T13:17:56.059Z,11.40
2019-02-27T13:20:30.130Z,10.87
2019-02-27T13:22:56.478Z,9.03
2019-02-27T13:25:24.122Z,9.13
2019-02-27T13:27:51.125Z,10.03
2019-02-27T13:30:26.915Z,10.90
2019-02-27T13:32:53.288Z,8.90
2019-02-27T13:35:20.184Z,8.77
2019-02-27T13:37:48.346Z,10.10
2019-02-27T13:40:25.028Z,9.23
2019-02-27T13:42:53.349Z,9.03
2019-02-27T13:45:21.654Z,8.17
2019-02-27T13:47:48.055Z,8.27
2019-02-27T13:50:14.511Z,8.27
2019-02-27T13:52:40.981Z,9.70
2019-02-27T13:55:11.158Z,8.17
2019-02-27T13:57:38.115Z,8.67
2019-02-27T14:00:14.304Z,7.70
2019-02-27T14:02:40.569Z,9.60
2019-02-27T14:05:08.316Z,7.93
2019-02-27T14:07:34.836Z,8.10
2019-02-27T14:10:01.222Z,7.77
2019-02-27T14:12:29.981Z,9.03
2019-02-27T14:14:55.964Z,8.73
2019-02-27T14:17:22.334Z,8.00
2019-02-27T14:19:49.143Z,8.47
2019-02-27T14:22:15.420Z,7.23
2019-02-27T14:24:42.071Z,6.63
2019-02-27T14:27:08.517Z,6.73
2019-02-27T14:29:35.124Z,6.63
2019-02-27T14:32:01.770Z,6.10
2019-02-27T14:34:28.398Z,6.30
2019-02-27T14:36:54.648Z,7.43
2019-02-27T14:39:20.916Z,6.90
2019-02-27T14:41:48.777Z,6.97
2019-02-27T14:44:15.296Z,6.20
2019-02-27T14:46:44.990Z,5.00
2019-02-27T14:49:10.196Z,5.90
2019-02-27T14:51:36.593Z,6.00
2019-02-27T14:54:03.194Z,5.77
2019-02-27T14:56:29.810Z,5.97
2019-02-27T14:58:56.794Z,6.60
2019-02-27T15:01:24.153Z,5.33
2019-02-27T15:03:50.416Z,5.60
2019-02-27T15:06:19.422Z,5.30
2019-02-27T15:08:45.475Z,5.70
2019-02-27T15:11:14.807Z,5.83
2019-02-27T15:13:40.564Z,4.70
2019-02-27T15:16:07.344Z,5.10
2019-02-27T15:18:34.027Z,4.80
2019-02-27T15:21:00.679Z,5.40
2019-02-27T15:23:28.323Z,4.90
2019-02-27T15:25:55.140Z,4.23
2019-02-27T15:28:21.807Z,5.03
2019-02-27T15:30:48.487Z,5.17
2019-02-27T15:33:16.422Z,5.50
2019-02-27T15:35:43.171Z,5.70
2019-02-27T15:38:11.792Z,5.70
2019-02-27T15:40:38.511Z,6.90
2019-02-27T15:43:11.264Z,6.40
2019-02-27T15:45:33.819Z,4.70
2019-02-27T15:48:00.476Z,5.50
2019-02-27T15:50:31.037Z,5.67
2019-02-27T15:52:57.821Z,6.10
2019-02-27T15:55:24.472Z,6.80
2019-02-27T15:57:53.645Z,6.00
2019-02-27T16:00:20.660Z,6.30
2019-02-27T16:02:47.333Z,5.37
2019-02-27T16:05:14.115Z,5.17
2019-02-27T16:07:41.129Z,4.70
2019-02-27T16:10:15.257Z,5.00
2019-02-27T16:12:41.936Z,5.13
2019-02-27T16:15:09.899Z,5.03
2019-02-27T16:17:36.656Z,4.90
2019-02-27T16:20:05.247Z,4.73
2019-02-27T16:22:31.898Z,5.07
2019-02-27T16:24:58.575Z,4.70
2019-02-27T16:27:25.311Z,4.43
2019-02-27T16:29:54.155Z,4.97
2019-02-27T16:32:20.468Z,4.97
2019-02-27T16:34:47.156Z,4.60
2019-02-27T16:37:13.853Z,4.90
2019-02-27T16:39:41.743Z,6.10
2019-02-27T16:42:08.284Z,5.40
2019-02-27T16:44:34.667Z,5.70
2019-02-27T16:47:03.354Z,5.07
2019-02-27T16:49:29.006Z,5.33
2019-02-27T16:51:55.263Z,4.50
2019-02-27T16:54:24.060Z,6.40
2019-02-27T16:56:50.889Z,7.23
2019-02-27T16:59:17.352Z,7.73
2019-02-27T17:01:43.627Z,11.03
2019-02-27T17:04:11.323Z,8.90
2019-02-27T17:06:37.765Z,10.13
2019-02-27T17:09:07.193Z,12.60
2019-02-27T17:11:33.208Z,10.60
2019-02-27T17:13:59.496Z,11.40
2019-02-27T17:16:25.800Z,12.10
2019-02-27T17:18:52.065Z,10.60
2019-02-27T17:21:21.981Z,9.90
2019-02-27T17:23:46.680Z,10.23
2019-02-27T17:26:13.065Z,8.37
2019-02-27T17:28:39.320Z,8.60
2019-02-27T17:31:05.614Z,7.70
2019-02-27T17:33:31.913Z,6.47
2019-02-27T17:35:59.272Z,5.83
2019-02-27T17:38:25.775Z,5.70
2019-02-27T17:40:52.540Z,5.90
2019-02-27T17:43:19.226Z,5.40
2019-02-27T17:45:46.971Z,6.97
2019-02-27T17:48:13.776Z,5.97
2019-02-27T17:50:40.092Z,5.83
2019-02-27T17:53:06.389Z,6.80
2019-02-27T17:55:32.736Z,6.50
2019-02-27T17:57:59.316Z,6.43
2019-02-27T18:00:37.556Z,6.10
2019-02-27T18:03:04.979Z,6.90
2019-02-27T18:08:20.455Z,6.10
2019-02-27T18:10:47.899Z,6.60
2019-02-27T18:13:14.201Z,6.40
2019-02-27T18:15:40.597Z,6.37
2019-02-27T18:18:10.446Z,6.03
2019-02-27T18:20:36.722Z,5.60
2019-02-27T18:23:04.054Z,5.40
2019-02-27T18:25:30.426Z,6.50
2019-02-27T18:27:59.618Z,6.43
2019-02-27T18:30:24.976Z,6.50
2019-02-27T18:32:51.361Z,6.30
2019-02-27T18:35:18.924Z,6.60
2019-02-27T18:37:45.404Z,6.70
2019-02-27T18:40:13.671Z,7.65
2019-02-27T18:42:40.069Z,7.00
2019-02-27T18:45:09.223Z,6.22
2019-02-27T18:47:35.893Z,18.37
2019-02-27T18:50:03.425Z,39.15
2019-02-27T18:52:29.701Z,53.95
2019-02-27T18:54:55.955Z,28.10
2019-02-27T18:57:23.496Z,17.75
2019-02-27T18:59:50.065Z,14.75
2019-02-27T19:02:19.664Z,14.50
2019-02-27T19:04:45.791Z,11.93
2019-02-27T19:07:12.808Z,10.88
2019-02-27T19:09:39.347Z,8.20
2019-02-27T19:12:05.977Z,8.48
2019-02-27T19:14:36.725Z,6.50
2019-02-27T19:17:02.432Z,5.83
2019-02-27T19:19:29.336Z,6.28
2019-02-27T19:21:55.730Z,5.90
2019-02-27T19:24:26.700Z,5.45
2019-02-27T19:26:50.147Z,6.33
2019-02-27T19:29:17.491Z,7.25
2019-02-27T19:31:43.857Z,8.28
2019-02-27T19:34:10.909Z,9.98
2019-02-27T19:36:37.287Z,8.58
2019-02-27T19:39:04.540Z,9.88
2019-02-27T19:41:30.929Z,11.50
2019-02-27T19:43:57.216Z,12.37
2019-02-27T19:46:23.593Z,11.25
2019-02-27T19:48:51.525Z,11.03
2019-02-27T19:51:20.196Z,11.35
2019-02-27T19:53:45.969Z,12.13
2019-02-27T19:56:12.354Z,13.40
2019-02-27T19:58:38.714Z,12.75
2019-02-27T20:01:08.937Z,12.25
2019-02-27T20:03:35.449Z,12.70
2019-02-27T20:06:02.013Z,13.13
2019-02-27T20:08:28.423Z,11.22
2019-02-27T20:10:55.098Z,12.65
2019-02-27T20:13:21.573Z,12.00
2019-02-27T20:15:49.946Z,14.25
2019-02-27T20:18:16.225Z,10.82
2019-02-27T20:20:42.794Z,11.45
2019-02-27T20:23:09.153Z,10.35
2019-02-27T20:25:35.545Z,11.05
2019-02-27T20:28:02.023Z,8.83
2019-02-27T20:30:28.484Z,8.90
2019-02-27T20:32:54.939Z,9.00
2019-02-27T20:35:21.664Z,9.35
2019-02-27T20:37:47.991Z,9.33
2019-02-27T20:40:15.653Z,9.75
2019-02-27T20:42:43.751Z,10.98
2019-02-27T20:45:13.304Z,11.45
2019-02-27T20:47:39.796Z,9.78
2019-02-27T20:50:09.753Z,8.45
2019-02-27T20:52:36.113Z,8.80
2019-02-27T20:55:03.395Z,8.73
2019-02-27T20:57:29.668Z,8.30
2019-02-27T21:00:00.647Z,9.38
2019-02-27T21:02:24.049Z,9.28
2019-02-27T21:04:50.317Z,9.50
2019-02-27T21:07:22.202Z,9.05
2019-02-27T21:09:45.211Z,9.13
2019-02-27T21:12:12.280Z,9.10
2019-02-27T21:14:38.536Z,8.53
2019-02-27T21:17:04.787Z,7.33
2019-02-27T21:19:31.063Z,7.40
2019-02-27T21:21:57.340Z,7.08
2019-02-27T21:24:23.716Z,7.75
2019-02-27T21:26:49.982Z,8.50
2019-02-27T21:29:16.328Z,8.40
2019-02-27T21:31:42.729Z,9.55
2019-02-27T21:34:08.990Z,8.43
2019-02-27T21:36:36.777Z,8.43
2019-02-27T21:39:04.307Z,8.85
2019-02-27T21:41:30.583Z,9.05
2019-02-27T21:43:57.257Z,9.85
2019-02-27T21:46:23.544Z,10.55
2019-02-27T21:48:49.778Z,10.35
2019-02-27T21:51:16.069Z,11.22
2019-02-27T21:53:42.447Z,12.40
2019-02-27T21:56:08.829Z,22.67
2019-02-27T21:58:35.092Z,15.30
2019-02-27T22:01:01.354Z,12.95
2019-02-27T22:03:27.752Z,12.88
2019-02-27T22:05:54.132Z,11.57
2019-02-27T22:08:20.398Z,12.10
2019-02-27T22:10:46.792Z,12.95
2019-02-27T22:13:13.241Z,14.63
2019-02-27T22:15:39.655Z,11.55
2019-02-27T22:18:08.367Z,11.30
2019-02-27T22:20:33.984Z,11.00
2019-02-27T22:23:00.364Z,11.08
2019-02-27T22:25:30.167Z,11.30
2019-02-27T22:27:54.868Z,11.10
2019-02-27T22:30:22.027Z,12.07
2019-02-27T22:32:48.852Z,11.50
2019-02-27T22:35:15.434Z,12.05
2019-02-27T22:37:41.912Z,12.35
2019-02-27T22:40:14.211Z,11.80
2019-02-27T22:42:40.565Z,10.70
2019-02-27T22:45:09.675Z,12.15
2019-02-27T22:47:36.035Z,11.45
2019-02-27T22:50:06.930Z,13.45
2019-02-27T22:52:32.586Z,12.45
2019-02-27T22:54:58.839Z,13.62
2019-02-27T22:57:25.128Z,13.13
2019-02-27T22:59:51.421Z,13.53
2019-02-27T23:02:17.917Z,12.43
2019-02-27T23:04:44.297Z,12.10
2019-02-27T23:07:10.820Z,11.80
2019-02-27T23:09:37.425Z,12.30
2019-02-27T23:12:03.979Z,13.58
2019-02-27T23:14:30.465Z,12.85
2019-02-27T23:16:56.929Z,13.80
2019-02-27T23:19:23.436Z,12.68
2019-02-27T23:21:49.803Z,13.03
2019-02-27T23:24:16.248Z,12.45
2019-02-27T23:26:42.732Z,9.85
2019-02-27T23:29:09.100Z,11.38
2019-02-27T23:31:35.497Z,10.15
2019-02-27T23:34:01.924Z,10.23
2019-02-27T23:36:28.329Z,10.45
2019-02-27T23:38:54.609Z,10.63
2019-02-27T23:41:23.184Z,12.53
2019-02-27T23:43:49.165Z,12.20
2019-02-27T23:46:15.734Z,13.65
2019-02-27T23:48:43.708Z,12.75
2019-02-27T23:51:10.212Z,13.03
2019-02-27T23:53:36.668Z,13.00
2019-02-27T23:56:03.882Z,13.40
2019-02-27T23:58:30.433Z,12.88
